createdAt,value
2023-03-11T00:01:03.269Z,3.70
2023-03-11T00:03:32.368Z,3.60
2023-03-11T00:11:55.467Z,3.60
2023-03-11T00:14:56.012Z,3.60
2023-03-11T00:17:26.594Z,3.60
2023-03-11T00:19:53.282Z,3.60
2023-03-11T00:22:22.000Z,3.60
2023-03-11T00:27:50.948Z,3.50
2023-03-11T00:30:20.468Z,3.50
2023-03-11T00:32:54.466Z,3.50
2023-03-11T00:35:28.687Z,3.50
2023-03-11T00:41:44.268Z,3.50
2023-03-11T00:44:16.537Z,3.40
2023-03-11T00:46:45.714Z,3.40
2023-03-11T00:49:16.594Z,3.40
2023-03-11T00:51:44.144Z,3.30
2023-03-11T00:54:14.538Z,3.30
2023-03-11T00:56:44.668Z,3.30
2023-03-11T00:59:12.266Z,3.20
2023-03-11T01:01:44.594Z,3.20
2023-03-11T01:04:12.147Z,3.20
2023-03-11T01:06:45.531Z,3.20
2023-03-11T01:09:16.653Z,3.20
2023-03-11T01:11:46.560Z,3.20
2023-03-11T01:14:13.259Z,3.20
2023-03-11T01:16:49.958Z,3.10
2023-03-11T01:19:21.515Z,3.20
2023-03-11T01:21:48.269Z,3.10
2023-03-11T01:24:17.075Z,3.10
2023-03-11T01:26:44.148Z,3.10
2023-03-11T01:32:03.902Z,3.10
2023-03-11T01:34:30.978Z,3.10
2023-03-11T01:37:01.690Z,3.00
2023-03-11T01:39:29.562Z,3.00
2023-03-11T01:41:57.126Z,2.90
2023-03-11T01:44:24.339Z,2.90
2023-03-11T01:46:51.583Z,2.90
2023-03-11T01:49:28.600Z,2.90
2023-03-11T01:52:07.757Z,2.80
2023-03-11T01:54:41.317Z,2.80
2023-03-11T01:57:12.553Z,2.70
2023-03-11T01:59:54.561Z,2.70
2023-03-11T02:03:08.724Z,2.70
2023-03-11T02:05:41.607Z,2.70
2023-03-11T02:10:53.731Z,2.60
2023-03-11T02:13:23.135Z,2.50
2023-03-11T02:30:22.783Z,2.30
2023-03-11T02:32:50.569Z,2.20
2023-03-11T02:35:18.385Z,2.20
2023-03-11T02:37:52.055Z,2.20
2023-03-11T02:40:22.688Z,2.20
2023-03-11T02:42:57.502Z,2.20
2023-03-11T02:45:26.891Z,2.10
2023-03-11T02:47:57.901Z,2.10
2023-03-11T02:50:26.298Z,2.10
2023-03-11T02:52:53.409Z,2.00
2023-03-11T02:55:22.849Z,2.00
2023-03-11T03:01:10.684Z,2.00
2023-03-11T03:03:42.419Z,2.00
2023-03-11T03:06:13.065Z,1.90
2023-03-11T03:08:40.563Z,1.90
2023-03-11T03:11:07.809Z,1.90
2023-03-11T03:13:35.552Z,1.90
2023-03-11T03:16:04.054Z,1.90
2023-03-11T03:18:38.968Z,1.90
2023-03-11T03:21:11.860Z,1.90
2023-03-11T03:23:38.413Z,1.80
2023-03-11T03:26:07.317Z,1.70
2023-03-11T03:28:41.483Z,1.70
2023-03-11T03:31:10.188Z,1.70
2023-03-11T03:33:39.082Z,1.70
2023-03-11T03:36:09.092Z,1.60
2023-03-11T03:38:40.789Z,1.60
2023-03-11T03:41:08.173Z,1.60
2023-03-11T03:43:46.880Z,1.60
2023-03-11T03:46:14.775Z,1.60
2023-03-11T03:48:46.231Z,1.50
2023-03-11T03:51:13.976Z,1.60
2023-03-11T03:53:48.745Z,1.50
2023-03-11T03:56:21.879Z,1.50
2023-03-11T03:58:48.682Z,1.50
2023-03-11T04:01:16.659Z,1.40
2023-03-11T04:03:49.892Z,1.40
2023-03-11T04:06:24.912Z,1.40
2023-03-11T04:09:00.861Z,1.30
2023-03-11T04:11:34.904Z,1.30
2023-03-11T04:14:04.827Z,1.20
2023-03-11T04:16:38.733Z,1.20
2023-03-11T04:19:11.825Z,1.10
2023-03-11T04:21:38.973Z,1.10
2023-03-11T04:24:08.231Z,1.10
2023-03-11T04:26:36.501Z,1.10
2023-03-11T04:29:11.782Z,1.10
2023-03-11T04:31:45.374Z,1.10
2023-03-11T04:34:12.106Z,1.10
2023-03-11T04:36:43.790Z,1.10
2023-03-11T04:39:14.008Z,1.10
2023-03-11T04:41:43.367Z,1.10
2023-03-11T04:44:14.073Z,1.20
2023-03-11T04:46:42.887Z,1.10
2023-03-11T04:49:10.400Z,1.10
2023-03-11T04:51:37.966Z,1.10
2023-03-11T04:54:05.799Z,1.00
2023-03-11T04:56:33.333Z,1.00
2023-03-11T04:59:00.716Z,1.00
2023-03-11T05:01:35.421Z,1.00
2023-03-11T05:04:04.993Z,0.90
2023-03-11T05:06:32.975Z,1.00
2023-03-11T05:09:01.947Z,1.00
2023-03-11T05:11:30.285Z,0.90
2023-03-11T05:13:57.204Z,0.90
2023-03-11T05:16:24.178Z,0.90
2023-03-11T05:19:19.478Z,0.90
2023-03-11T05:21:50.174Z,0.80
2023-03-11T05:24:21.793Z,0.80
2023-03-11T05:26:50.832Z,0.80
2023-03-11T05:29:17.586Z,0.80
2023-03-11T05:31:46.350Z,0.80
2023-03-11T05:34:13.828Z,0.80
2023-03-11T05:36:44.018Z,0.80
2023-03-11T05:39:15.057Z,0.80
2023-03-11T05:41:44.565Z,0.80
2023-03-11T05:44:11.663Z,0.80
2023-03-11T05:46:41.422Z,0.80
2023-03-11T05:49:10.184Z,0.80
2023-03-11T05:51:37.433Z,0.70
2023-03-11T05:54:06.523Z,0.80
2023-03-11T05:56:56.921Z,0.70
2023-03-11T05:59:24.783Z,0.70
2023-03-11T06:02:02.309Z,0.70
2023-03-11T06:04:31.604Z,0.70
2023-03-11T06:07:05.059Z,0.70
2023-03-11T06:09:39.906Z,0.70
2023-03-11T06:12:15.081Z,0.70
2023-03-11T06:15:01.082Z,0.70
2023-03-11T06:17:30.619Z,0.70
2023-03-11T06:20:01.988Z,0.70
2023-03-11T06:22:32.073Z,0.70
2023-03-11T06:25:01.911Z,0.70
2023-03-11T06:27:31.409Z,0.70
2023-03-11T06:29:58.697Z,0.70
2023-03-11T06:32:28.832Z,0.70
2023-03-11T06:34:55.704Z,0.70
2023-03-11T06:37:27.111Z,0.70
2023-03-11T06:39:59.703Z,0.70
2023-03-11T06:42:26.700Z,0.80
2023-03-11T06:45:02.172Z,0.80
2023-03-11T06:47:32.108Z,0.80
2023-03-11T06:50:05.386Z,0.80
2023-03-11T06:52:44.016Z,0.80
2023-03-11T06:55:16.993Z,0.90
2023-03-11T06:57:53.433Z,0.90
2023-03-11T07:00:22.682Z,0.90
2023-03-11T07:02:58.167Z,0.90
2023-03-11T07:05:25.780Z,1.00
2023-03-11T07:08:05.152Z,1.00
2023-03-11T07:10:35.403Z,1.00
2023-03-11T07:13:03.349Z,1.00
2023-03-11T07:15:34.910Z,1.10
2023-03-11T07:18:01.892Z,1.10
2023-03-11T07:20:30.761Z,1.10
2023-03-11T07:23:01.172Z,1.20
2023-03-11T07:25:27.996Z,1.20
2023-03-11T07:28:00.946Z,1.30
2023-03-11T07:30:27.825Z,1.30
2023-03-11T07:32:57.657Z,1.40
2023-03-11T07:35:24.395Z,1.50
2023-03-11T07:37:52.072Z,1.50
2023-03-11T07:40:22.187Z,1.60
2023-03-11T07:42:51.334Z,1.70
2023-03-11T07:45:21.141Z,1.70
2023-03-11T07:47:49.888Z,1.80
2023-03-11T07:50:22.225Z,1.90
2023-03-11T07:52:49.081Z,2.00
2023-03-11T08:03:58.437Z,2.50
2023-03-11T08:06:28.653Z,2.60
2023-03-11T08:09:08.727Z,2.60
2023-03-11T08:11:36.294Z,2.50
2023-03-11T08:14:04.047Z,2.50
2023-03-11T08:16:33.390Z,2.60
2023-03-11T08:19:12.075Z,2.70
2023-03-11T08:21:38.944Z,2.90
2023-03-11T08:24:09.234Z,3.10
2023-03-11T08:26:35.960Z,3.30
2023-03-11T08:29:05.463Z,3.50
2023-03-11T08:31:36.248Z,3.50
2023-03-11T08:34:11.864Z,3.50
2023-03-11T08:36:39.351Z,3.50
2023-03-11T08:39:06.468Z,3.50
2023-03-11T08:41:33.354Z,3.40
2023-03-11T08:44:03.150Z,3.40
2023-03-11T08:46:36.240Z,3.40
2023-03-11T08:49:07.032Z,3.50
2023-03-11T08:51:38.183Z,3.60
2023-03-11T08:54:05.307Z,3.70
2023-03-11T08:56:32.098Z,3.90
2023-03-11T08:58:58.925Z,4.00
2023-03-11T09:01:25.636Z,4.10
2023-03-11T09:04:02.314Z,4.20
2023-03-11T09:06:35.340Z,4.30
2023-03-11T09:09:04.423Z,4.30
2023-03-11T09:11:31.096Z,4.30
2023-03-11T09:14:08.288Z,4.20
2023-03-11T09:16:38.463Z,4.10
2023-03-11T09:19:06.718Z,4.00
2023-03-11T09:21:34.607Z,4.00
2023-03-11T09:24:03.915Z,4.20
2023-03-11T09:26:35.881Z,4.60
2023-03-11T09:29:02.741Z,4.80
2023-03-11T09:31:31.795Z,5.20
2023-03-11T09:34:02.328Z,5.50
2023-03-11T09:36:35.231Z,6.00
2023-03-11T09:39:04.235Z,6.30
2023-03-11T09:41:58.779Z,6.60
2023-03-11T09:44:59.129Z,6.50
2023-03-11T09:47:35.315Z,6.40
2023-03-11T09:50:53.025Z,6.60
2023-03-11T09:53:30.914Z,7.00
2023-03-11T09:56:04.249Z,7.50
2023-03-11T09:58:54.572Z,7.70
2023-03-11T10:01:37.560Z,7.30
2023-03-11T10:04:12.330Z,7.00
2023-03-11T10:06:42.431Z,6.90
2023-03-11T10:09:24.777Z,6.90
2023-03-11T10:12:23.502Z,7.30
2023-03-11T10:15:05.264Z,7.60
2023-03-11T10:18:00.486Z,7.90
2023-03-11T10:20:43.812Z,8.10
2023-03-11T10:23:31.682Z,8.40
2023-03-11T10:26:13.372Z,8.80
2023-03-11T10:29:13.330Z,8.90
2023-03-11T10:31:48.595Z,9.00
2023-03-11T10:34:35.302Z,9.00
2023-03-11T10:37:19.341Z,8.90
2023-03-11T10:39:49.402Z,8.80
2023-03-11T10:42:22.365Z,8.90
2023-03-11T10:44:51.084Z,8.90
2023-03-11T10:47:22.185Z,8.80
2023-03-11T10:49:51.978Z,8.60
2023-03-11T10:52:23.436Z,8.70
2023-03-11T10:55:08.534Z,9.10
2023-03-11T10:57:39.102Z,9.60
2023-03-11T11:00:30.428Z,9.80
2023-03-11T11:07:29.663Z,9.20
2023-03-11T11:10:20.107Z,8.60
2023-03-11T11:13:07.228Z,8.30
2023-03-11T11:18:42.930Z,7.90
2023-03-11T11:21:27.041Z,7.70
2023-03-11T11:24:23.292Z,7.60
2023-03-11T11:27:14.401Z,7.40
2023-03-11T11:29:44.133Z,7.40
2023-03-11T11:32:26.424Z,7.40
2023-03-11T11:35:16.349Z,7.50
2023-03-11T11:37:51.031Z,7.40
2023-03-11T11:40:25.147Z,7.30
2023-03-11T11:43:24.763Z,7.60
2023-03-11T11:46:04.430Z,7.90
2023-03-11T11:48:53.446Z,8.50
2023-03-11T11:51:31.498Z,8.80
2023-03-11T11:54:56.439Z,9.00
2023-03-11T11:57:24.011Z,9.30
2023-03-11T11:59:53.008Z,9.70
2023-03-11T12:02:31.894Z,9.80
2023-03-11T12:05:13.196Z,9.50
2023-03-11T12:08:02.530Z,9.30
2023-03-11T12:10:42.250Z,9.20
2023-03-11T12:13:32.708Z,9.10
2023-03-11T12:16:16.527Z,9.00
2023-03-11T12:19:03.314Z,9.10
2023-03-11T12:21:42.705Z,9.30
2023-03-11T12:24:12.279Z,9.60
2023-03-11T12:26:47.578Z,9.60
2023-03-11T12:29:32.388Z,9.70
2023-03-11T12:32:00.838Z,10.10
2023-03-11T12:34:29.207Z,10.60
2023-03-11T12:36:59.470Z,10.90
2023-03-11T12:39:34.292Z,10.70
2023-03-11T12:42:16.809Z,10.50
2023-03-11T12:44:48.494Z,10.90
2023-03-11T12:47:19.210Z,11.50
2023-03-11T12:50:34.317Z,11.90
2023-03-11T12:53:03.275Z,12.40
2023-03-11T12:55:34.516Z,12.80
2023-03-11T12:58:32.685Z,12.90
2023-03-11T13:04:43.818Z,12.80
2023-03-11T13:07:45.427Z,12.70
2023-03-11T13:10:30.734Z,13.10
2023-03-11T13:12:57.875Z,13.40
2023-03-11T13:15:37.447Z,12.80
2023-03-11T13:18:13.033Z,12.80
2023-03-11T13:20:43.610Z,12.60
2023-03-11T13:23:33.248Z,12.50
2023-03-11T13:26:19.604Z,12.40
2023-03-11T13:29:05.069Z,12.60
2023-03-11T13:31:40.820Z,13.00
2023-03-11T13:34:14.795Z,13.00
2023-03-11T13:36:54.527Z,13.30
2023-03-11T13:39:59.976Z,13.60
2023-03-11T13:42:46.036Z,13.80
2023-03-11T13:45:30.474Z,14.00
2023-03-11T13:48:05.667Z,14.30
2023-03-11T13:50:43.696Z,14.60
2023-03-11T13:53:20.488Z,14.70
2023-03-11T13:55:51.639Z,14.80
2023-03-11T13:58:24.364Z,13.90
2023-03-11T14:00:57.931Z,13.70
2023-03-11T14:03:28.680Z,13.50
2023-03-11T14:06:08.673Z,13.40
2023-03-11T14:08:37.006Z,13.50
2023-03-11T14:11:11.662Z,13.20
2023-03-11T14:13:53.139Z,13.20
2023-03-11T14:16:42.983Z,13.40
2023-03-11T14:19:19.356Z,13.40
2023-03-11T14:21:50.809Z,13.20
2023-03-11T14:24:45.863Z,13.10
2023-03-11T14:27:17.067Z,13.00
2023-03-11T14:29:47.515Z,13.00
2023-03-11T14:32:33.938Z,13.10
2023-03-11T14:35:22.662Z,13.20
2023-03-11T14:37:51.901Z,12.80
2023-03-11T14:40:27.721Z,12.50
2023-03-11T14:42:58.326Z,12.50
2023-03-11T14:45:29.565Z,12.30
2023-03-11T14:48:05.202Z,12.20
2023-03-11T14:50:37.908Z,12.20
2023-03-11T14:53:13.602Z,12.30
2023-03-11T14:56:05.727Z,12.40
2023-03-11T14:58:36.768Z,12.50
2023-03-11T15:01:26.000Z,12.50
2023-03-11T15:04:05.694Z,12.60
2023-03-11T15:09:27.179Z,12.20
2023-03-11T15:11:58.636Z,11.70
2023-03-11T15:14:27.050Z,11.30
2023-03-11T15:16:55.420Z,11.00
2023-03-11T15:19:30.399Z,10.90
2023-03-11T15:22:01.373Z,10.80
2023-03-11T15:24:31.327Z,10.70
2023-03-11T15:27:36.669Z,10.60
2023-03-11T15:30:24.587Z,10.50
2023-03-11T15:32:58.180Z,10.40
2023-03-11T15:35:30.932Z,10.20
2023-03-11T15:38:19.215Z,10.10
2023-03-11T15:41:21.155Z,10.00
2023-03-11T15:43:48.717Z,9.90
2023-03-11T15:46:18.585Z,9.90
2023-03-11T15:48:48.194Z,9.80
2023-03-11T15:51:28.902Z,9.70
2023-03-11T15:53:58.914Z,9.40
2023-03-11T15:56:25.586Z,9.40
2023-03-11T15:58:52.410Z,9.30
2023-03-11T16:01:23.069Z,9.20
2023-03-11T16:03:50.791Z,9.20
2023-03-11T16:06:21.995Z,9.10
2023-03-11T16:08:50.919Z,9.20
2023-03-11T16:11:20.611Z,9.10
2023-03-11T16:13:47.879Z,8.90
2023-03-11T16:16:16.544Z,8.90
2023-03-11T16:37:38.963Z,8.50
2023-03-11T16:40:19.226Z,8.40
2023-03-11T16:42:46.885Z,8.30
2023-03-11T16:45:18.013Z,8.30
2023-03-11T16:47:44.724Z,8.30
2023-03-11T16:50:15.376Z,8.30
2023-03-11T16:52:45.892Z,8.20
2023-03-11T16:55:12.890Z,8.10
2023-03-11T16:57:39.897Z,8.10
2023-03-11T17:00:09.076Z,8.00
2023-03-11T17:02:36.608Z,7.80
2023-03-11T17:05:04.471Z,7.70
2023-03-11T17:07:33.291Z,7.60
2023-03-11T17:10:03.709Z,7.50
2023-03-11T17:12:30.617Z,7.50
2023-03-11T17:15:00.484Z,7.30
2023-03-11T17:17:27.721Z,7.20
2023-03-11T17:20:01.209Z,7.00
2023-03-11T17:22:31.786Z,6.80
2023-03-11T17:24:59.211Z,6.60
2023-03-11T17:27:37.245Z,6.50
2023-03-11T17:30:05.565Z,6.40
2023-03-11T17:32:32.496Z,6.20
2023-03-11T17:35:12.060Z,6.00
2023-03-11T17:37:45.261Z,5.90
2023-03-11T17:40:14.851Z,5.70
2023-03-11T17:42:47.064Z,5.60
2023-03-11T17:45:14.080Z,5.60
2023-03-11T17:48:04.846Z,5.50
2023-03-11T17:50:37.916Z,5.40
2023-03-11T17:53:05.664Z,5.30
2023-03-11T17:55:38.870Z,5.20
2023-03-11T17:58:10.213Z,5.10
2023-03-11T18:00:37.206Z,5.10
2023-03-11T18:03:05.057Z,5.00
2023-03-11T18:11:30.375Z,4.80
2023-03-11T18:13:59.258Z,4.80
2023-03-11T18:16:28.502Z,4.70
2023-03-11T18:19:06.413Z,4.70
2023-03-11T18:21:33.159Z,4.70
2023-03-11T18:24:00.889Z,4.70
2023-03-11T18:26:29.370Z,4.70
2023-03-11T18:28:59.814Z,4.70
2023-03-11T18:31:28.491Z,4.70
2023-03-11T18:34:00.510Z,4.60
2023-03-11T18:36:35.372Z,4.60
2023-03-11T18:39:02.478Z,4.60
2023-03-11T18:41:33.181Z,4.50
2023-03-11T18:44:01.108Z,4.50
2023-03-11T18:46:33.566Z,4.50
2023-03-11T18:49:28.392Z,4.50
2023-03-11T18:51:56.453Z,4.40
2023-03-11T18:54:25.410Z,4.30
2023-03-11T18:56:53.089Z,4.10
2023-03-11T18:59:20.824Z,4.10
2023-03-11T19:01:51.925Z,4.00
2023-03-11T19:04:19.022Z,3.90
2023-03-11T19:06:47.433Z,3.80
2023-03-11T19:09:17.636Z,3.80
2023-03-11T19:11:47.813Z,3.60
2023-03-11T19:14:18.152Z,3.50
2023-03-11T19:16:44.855Z,3.50
2023-03-11T19:19:14.056Z,3.30
2023-03-11T19:21:47.119Z,3.10
2023-03-11T19:24:16.410Z,2.90
2023-03-11T19:26:46.005Z,2.80
2023-03-11T19:29:13.991Z,2.70
2023-03-11T19:32:07.665Z,2.50
2023-03-11T19:35:00.541Z,2.40
2023-03-11T19:37:27.217Z,2.20
2023-03-11T19:39:53.912Z,2.20
2023-03-11T19:42:21.082Z,2.00
2023-03-11T19:44:49.375Z,2.00
2023-03-11T19:47:17.852Z,1.90
2023-03-11T19:49:44.545Z,1.90
2023-03-11T19:52:12.954Z,1.80
2023-03-11T19:54:39.870Z,1.80
2023-03-11T19:57:11.479Z,1.80
2023-03-11T19:59:38.263Z,1.80
2023-03-11T20:02:12.606Z,1.80
2023-03-11T20:04:43.336Z,1.80
2023-03-11T20:07:11.362Z,1.70
2023-03-11T20:10:03.485Z,1.70
2023-03-11T20:12:35.430Z,1.60
2023-03-11T20:15:07.234Z,1.50
2023-03-11T20:17:43.393Z,1.50
2023-03-11T20:20:10.709Z,1.50
2023-03-11T20:22:37.506Z,1.40
2023-03-11T20:26:17.319Z,1.40
2023-03-11T20:28:44.073Z,1.40
2023-03-11T20:34:16.447Z,1.30
2023-03-11T20:36:43.154Z,1.10
2023-03-11T20:39:10.705Z,1.10
2023-03-11T20:41:41.242Z,0.90
2023-03-11T20:44:12.333Z,0.90
2023-03-11T20:46:40.696Z,0.90
2023-03-11T20:49:07.694Z,0.90
2023-03-11T20:51:34.642Z,0.80
2023-03-11T20:54:01.541Z,0.80
2023-03-11T20:56:31.249Z,0.70
2023-03-11T20:58:58.414Z,0.70
2023-03-11T21:01:34.319Z,0.70
2023-03-11T21:04:07.155Z,0.70
2023-03-11T21:06:36.772Z,0.60
2023-03-11T21:09:12.966Z,0.60
2023-03-11T21:11:46.514Z,0.50
2023-03-11T21:14:18.871Z,0.40
2023-03-11T21:16:45.985Z,0.40
2023-03-11T21:19:13.311Z,0.40
2023-03-11T21:24:41.731Z,0.40
2023-03-11T21:27:08.422Z,0.30
2023-03-11T21:29:38.410Z,0.30
2023-03-11T21:32:09.770Z,0.30
2023-03-11T21:34:41.556Z,0.20
2023-03-11T21:37:11.345Z,0.20
2023-03-11T21:39:38.375Z,0.10
2023-03-11T21:42:08.389Z,0.10
2023-03-11T21:44:47.435Z,0.10
2023-03-11T21:50:07.237Z,0.10
2023-03-11T21:52:33.888Z,0.10
2023-03-11T21:55:02.104Z,0.10
2023-03-11T21:57:32.511Z,0.10
2023-03-11T22:00:00.138Z,0.00
2023-03-11T22:02:26.800Z,0.00
2023-03-11T22:04:53.951Z,0.00
2023-03-11T22:07:39.753Z,0.00
2023-03-11T22:10:15.112Z,0.00
2023-03-11T22:12:44.178Z,0.00
2023-03-11T22:15:11.217Z,0.00
2023-03-11T22:17:41.414Z,0.00
2023-03-11T22:20:09.413Z,0.00
2023-03-11T22:22:36.301Z,-0.10
2023-03-11T22:25:04.397Z,-0.10
2023-03-11T22:27:31.927Z,-0.10
2023-03-11T22:29:59.282Z,-0.10
2023-03-11T22:32:34.327Z,-0.10
2023-03-11T22:35:01.006Z,-0.10
2023-03-11T22:37:27.970Z,-0.20
2023-03-11T22:39:54.804Z,-0.10
2023-03-11T22:42:36.298Z,-0.20
2023-03-11T22:45:06.607Z,-0.20
2023-03-11T22:47:33.257Z,-0.20
2023-03-11T22:50:01.530Z,-0.30
2023-03-11T22:52:31.918Z,-0.30
2023-03-11T22:55:00.802Z,-0.30
2023-03-11T22:57:27.514Z,-0.30
2023-03-11T23:00:00.692Z,-0.20
2023-03-11T23:02:29.406Z,-0.20
2023-03-11T23:04:56.259Z,-0.20
2023-03-11T23:07:25.154Z,-0.20
2023-03-11T23:09:54.974Z,-0.30
2023-03-11T23:12:22.210Z,-0.30
2023-03-11T23:14:51.256Z,-0.30
2023-03-11T23:17:18.490Z,-0.40
2023-03-11T23:19:45.163Z,-0.30
2023-03-11T23:22:11.899Z,-0.40
2023-03-11T23:24:41.154Z,-0.40
2023-03-11T23:27:07.893Z,-0.40
2023-03-11T23:29:38.123Z,-0.40
2023-03-11T23:32:05.628Z,-0.30
2023-03-11T23:34:32.287Z,-0.30
2023-03-11T23:37:19.384Z,-0.40
2023-03-11T23:39:46.044Z,-0.40
2023-03-11T23:42:25.066Z,-0.40
2023-03-11T23:44:53.232Z,-0.40
2023-03-11T23:47:20.110Z,-0.40
2023-03-11T23:49:47.548Z,-0.40
2023-03-11T23:52:14.273Z,-0.50
2023-03-11T23:54:40.982Z,-0.50
2023-03-11T23:57:11.468Z,-0.60
2023-03-11T23:59:39.263Z,-0.50
